Crotto, Argentina
Current Conditions -  °F | °C
As of 5:00 AM on Monday 22 Dec 2014 (Local Time) from SAEZ Reporting Station
Clear Clear  
Wind Chill: 10°   Ceiling: Unl
Heat Index: 10°   Visibility: 6mi
Dew Point:   Wind: 3mph
Humidity: 87%   Direction: 210°SSW
Pressure: 29.97"   Gusts: NA
Location:  36.58°S, 60.18°W
Report Text: SAEZ 220800Z 21003KT 150V210 CAVOK 10/08 Q1015
Loading
Personal Weather Stations






























Interactive Weather Map New forecast layout! Learn more

10-Day Weather Forecast

Advertisements
Track Severe Weather on mobile